OSDI/DAM METAR and TAF weather

Enter ICAO airport designator
Station Type Date Time Source
OSDI METAR 2020/06/01 16:00 UTC NOAA

OSDI 011600Z 21014KT CAVOK 30/03 Q1010


Station Type Date Time Source
OSDI Decoded METAR 2020/06/01 16:00 UTC NOAA

Damascus Int. Airport, Syria (OSDI) 33-25N 036-31E 609M
Jun 01, 2020 - 12:00 PM EDT / 2020.06.01 1600 UTC
Wind: from the SSW (210 degrees) at 16 MPH (14 KT):0
Visibility: greater than 7 mile(s):0
Temperature: 86 F (30 C)
Dew Point: 37 F (3 C)
Relative Humidity: 17%
Pressure (altimeter): 29.83 in. Hg (1010 hPa)
ob: OSDI 011600Z 21014KT CAVOK 30/03 Q1010
cycle: 16

Station Type Date Time Source
OSDI TAF 2020/06/01 18:24 UTC NOAA

TAF TAF OSDI 0118/0224 23015KT CAVOK
TEMPO 0200/0209 VRB03KT

Example: see airport list